createdAt,value
2023-05-03T00:00:44.789Z,8.44
2023-05-03T00:01:45.042Z,8.44
2023-05-03T00:02:45.366Z,8.43
2023-05-03T00:03:45.503Z,8.37
2023-05-03T00:04:45.813Z,8.37
2023-05-03T00:05:46.169Z,8.37
2023-05-03T00:06:46.434Z,8.38
2023-05-03T00:07:46.608Z,8.38
2023-05-03T00:08:46.962Z,8.36
2023-05-03T00:09:47.290Z,8.36
2023-05-03T00:10:47.521Z,8.34
2023-05-03T00:11:47.772Z,8.34
2023-05-03T00:12:47.973Z,8.36
2023-05-03T00:13:48.353Z,8.38
2023-05-03T00:14:48.612Z,8.40
2023-05-03T00:15:48.852Z,8.41
2023-05-03T00:16:49.129Z,8.44
2023-05-03T00:17:49.420Z,8.44
2023-05-03T00:18:49.663Z,8.45
2023-05-03T00:19:49.962Z,8.45
2023-05-03T00:20:50.272Z,8.47
2023-05-03T00:21:50.542Z,8.48
2023-05-03T00:22:50.728Z,8.52
2023-05-03T00:23:51.106Z,8.52
2023-05-03T00:24:51.320Z,8.48
2023-05-03T00:25:51.533Z,8.47
2023-05-03T00:26:51.827Z,8.45
2023-05-03T00:27:52.170Z,8.45
2023-05-03T00:28:52.529Z,8.40
2023-05-03T00:29:52.725Z,8.37
2023-05-03T00:30:53.114Z,8.38
2023-05-03T00:31:53.318Z,8.37
2023-05-03T00:32:53.674Z,8.37
2023-05-03T00:33:53.974Z,8.30
2023-05-03T00:34:54.299Z,8.28
2023-05-03T00:35:54.671Z,8.26
2023-05-03T00:36:54.956Z,8.22
2023-05-03T00:37:55.155Z,8.22
2023-05-03T00:38:55.479Z,8.20
2023-05-03T00:39:55.850Z,8.16
2023-05-03T00:40:56.099Z,8.19
2023-05-03T00:41:56.323Z,8.22
2023-05-03T00:42:56.751Z,8.20
2023-05-03T00:43:56.992Z,8.16
2023-05-03T00:44:57.217Z,8.18
2023-05-03T00:46:08.242Z,8.18
2023-05-03T00:46:58.752Z,8.12
2023-05-03T00:47:57.972Z,8.15
2023-05-03T00:48:58.214Z,8.16
2023-05-03T00:49:58.444Z,8.11
2023-05-03T00:50:58.660Z,8.07
2023-05-03T00:51:58.965Z,8.07
2023-05-03T00:52:59.323Z,8.05
2023-05-03T00:53:59.642Z,8.05
2023-05-03T00:54:59.978Z,8.02
2023-05-03T00:56:00.310Z,8.05
2023-05-03T00:57:00.641Z,8.07
2023-05-03T00:58:01.040Z,8.04
2023-05-03T00:59:01.241Z,8.02
2023-05-03T01:00:02.002Z,8.02
2023-05-03T01:01:01.892Z,8.04
2023-05-03T01:02:02.217Z,8.07
2023-05-03T01:03:02.462Z,8.10
2023-05-03T01:04:02.683Z,8.08
2023-05-03T01:05:02.915Z,8.02
2023-05-03T01:06:03.348Z,8.02
2023-05-03T01:07:03.536Z,8.01
2023-05-03T01:08:03.865Z,8.04
2023-05-03T01:09:04.253Z,8.01
2023-05-03T01:10:04.808Z,8.02
2023-05-03T01:11:04.921Z,8.05
2023-05-03T01:12:05.126Z,8.02
2023-05-03T01:13:05.361Z,7.98
2023-05-03T01:14:05.666Z,7.95
2023-05-03T01:15:06.032Z,7.93
2023-05-03T01:16:06.330Z,7.93
2023-05-03T01:17:06.545Z,7.90
2023-05-03T01:18:06.788Z,7.92
2023-05-03T01:19:06.982Z,7.89
2023-05-03T01:20:07.324Z,7.85
2023-05-03T01:21:07.554Z,7.80
2023-05-03T01:22:07.810Z,7.74
2023-05-03T01:23:08.087Z,7.68
2023-05-03T01:24:08.412Z,7.68
2023-05-03T01:25:08.760Z,7.63
2023-05-03T01:26:09.148Z,7.60
2023-05-03T01:27:09.421Z,7.60
2023-05-03T01:28:09.619Z,7.60
2023-05-03T01:29:09.967Z,7.63
2023-05-03T01:30:10.190Z,7.63
2023-05-03T01:31:10.640Z,7.60
2023-05-03T01:32:10.845Z,7.60
2023-05-03T01:33:11.059Z,7.60
2023-05-03T01:34:11.439Z,7.57
2023-05-03T01:35:11.707Z,7.55
2023-05-03T01:36:12.008Z,7.55
2023-05-03T01:37:12.169Z,7.55
2023-05-03T01:38:12.511Z,7.57
2023-05-03T01:39:12.767Z,7.57
2023-05-03T01:40:13.019Z,7.55
2023-05-03T01:41:13.388Z,7.55
2023-05-03T01:42:13.591Z,7.53
2023-05-03T01:43:13.944Z,7.52
2023-05-03T01:44:14.156Z,7.50
2023-05-03T01:45:14.493Z,7.52
2023-05-03T01:46:14.870Z,7.53
2023-05-03T01:47:15.165Z,7.52
2023-05-03T01:48:15.445Z,7.49
2023-05-03T01:49:15.629Z,7.46
2023-05-03T01:50:15.945Z,7.45
2023-05-03T01:51:16.355Z,7.45
2023-05-03T01:52:16.596Z,7.42
2023-05-03T01:53:16.892Z,7.43
2023-05-03T01:54:17.253Z,7.39
2023-05-03T01:55:17.486Z,7.39
2023-05-03T01:56:17.713Z,7.34
2023-05-03T01:57:18.034Z,7.34
2023-05-03T01:58:18.406Z,7.37
2023-05-03T01:59:18.677Z,7.35
2023-05-03T02:00:18.910Z,7.35
2023-05-03T02:01:19.261Z,7.35
2023-05-03T02:02:19.417Z,7.34
2023-05-03T02:03:19.913Z,7.32
2023-05-03T02:04:20.062Z,7.31
2023-05-03T02:05:20.270Z,7.27
2023-05-03T02:06:20.696Z,7.25
2023-05-03T02:07:20.923Z,7.24
2023-05-03T02:08:21.276Z,7.21
2023-05-03T02:09:21.528Z,7.23
2023-05-03T02:10:21.786Z,7.24
2023-05-03T02:11:22.037Z,7.23
2023-05-03T02:12:22.290Z,7.24
2023-05-03T02:13:22.518Z,7.25
2023-05-03T02:14:22.731Z,7.27
2023-05-03T02:15:23.080Z,7.24
2023-05-03T02:16:23.325Z,7.23
2023-05-03T02:17:23.607Z,7.20
2023-05-03T02:18:23.887Z,7.16
2023-05-03T02:19:24.217Z,7.15
2023-05-03T02:20:24.608Z,7.15
2023-05-03T02:21:24.832Z,7.13
2023-05-03T02:22:25.151Z,7.10
2023-05-03T02:23:25.462Z,7.17
2023-05-03T02:24:25.798Z,7.15
2023-05-03T02:25:27.570Z,7.21
2023-05-03T02:26:26.378Z,7.17
2023-05-03T02:27:26.634Z,7.15
2023-05-03T02:28:26.848Z,7.09
2023-05-03T02:29:27.162Z,7.12
2023-05-03T02:30:27.504Z,7.10
2023-05-03T02:31:27.952Z,7.09
2023-05-03T02:32:28.221Z,7.07
2023-05-03T02:33:28.563Z,7.09
2023-05-03T02:34:28.816Z,7.12
2023-05-03T02:35:29.096Z,7.12
2023-05-03T02:36:29.437Z,7.10
2023-05-03T02:37:29.680Z,7.09
2023-05-03T02:38:30.033Z,7.06
2023-05-03T02:39:30.227Z,7.13
2023-05-03T02:40:30.632Z,7.10
2023-05-03T02:41:30.832Z,7.10
2023-05-03T02:42:31.159Z,7.12
2023-05-03T02:43:31.526Z,7.09
2023-05-03T02:44:33.639Z,7.03
2023-05-03T02:45:32.040Z,7.05
2023-05-03T02:46:32.302Z,7.05
2023-05-03T02:47:32.589Z,7.03
2023-05-03T02:48:32.772Z,6.98
2023-05-03T02:49:33.108Z,6.99
2023-05-03T02:50:33.389Z,6.98
2023-05-03T02:51:33.603Z,7.02
2023-05-03T02:52:33.957Z,7.03
2023-05-03T02:53:34.213Z,7.07
2023-05-03T02:54:34.503Z,7.12
2023-05-03T02:55:34.724Z,7.15
2023-05-03T02:56:34.982Z,7.17
2023-05-03T02:57:35.214Z,7.20
2023-05-03T02:58:35.453Z,7.15
2023-05-03T02:59:35.673Z,7.10
2023-05-03T03:00:35.949Z,7.13
2023-05-03T03:01:36.249Z,7.12
2023-05-03T03:02:36.551Z,7.12
2023-05-03T03:03:36.918Z,7.12
2023-05-03T03:04:37.088Z,7.15
2023-05-03T03:05:37.388Z,7.15
2023-05-03T03:06:37.664Z,7.16
2023-05-03T03:07:37.901Z,7.15
2023-05-03T03:08:38.210Z,7.16
2023-05-03T03:09:38.630Z,7.15
2023-05-03T03:10:38.970Z,7.15
2023-05-03T03:11:39.352Z,7.15
2023-05-03T03:12:39.431Z,7.13
2023-05-03T03:13:40.007Z,7.13
2023-05-03T03:14:40.141Z,7.12
2023-05-03T03:15:40.441Z,7.13
2023-05-03T03:16:40.732Z,7.10
2023-05-03T03:17:40.974Z,7.09
2023-05-03T03:18:41.309Z,7.07
2023-05-03T03:19:41.590Z,7.06
2023-05-03T03:20:41.854Z,7.06
2023-05-03T03:21:42.065Z,7.05
2023-05-03T03:22:42.427Z,7.05
2023-05-03T03:23:42.669Z,7.06
2023-05-03T03:24:42.937Z,7.03
2023-05-03T03:25:43.163Z,7.06
2023-05-03T03:26:43.583Z,7.05
2023-05-03T03:27:43.834Z,7.07
2023-05-03T03:28:44.094Z,7.06
2023-05-03T03:29:44.374Z,7.06
2023-05-03T03:30:44.625Z,7.05
2023-05-03T03:31:44.945Z,7.05
2023-05-03T03:32:45.106Z,7.03
2023-05-03T03:33:45.347Z,7.03
2023-05-03T03:34:45.620Z,7.02
2023-05-03T03:35:45.874Z,6.97
2023-05-03T03:36:46.176Z,6.95
2023-05-03T03:37:46.401Z,6.94
2023-05-03T03:38:46.658Z,6.92
2023-05-03T03:39:46.943Z,6.88
2023-05-03T03:40:47.200Z,6.84
2023-05-03T03:41:47.444Z,6.84
2023-05-03T03:42:47.636Z,6.87
2023-05-03T03:43:48.009Z,6.88
2023-05-03T03:44:48.302Z,6.89
2023-05-03T03:45:48.527Z,6.87
2023-05-03T03:46:48.764Z,6.89
2023-05-03T03:47:49.532Z,6.87
2023-05-03T03:48:49.300Z,6.84
2023-05-03T03:49:49.676Z,6.80
2023-05-03T03:50:49.906Z,6.84
2023-05-03T03:51:50.125Z,6.84
2023-05-03T03:52:50.520Z,6.85
2023-05-03T03:53:50.742Z,6.84
2023-05-03T03:54:50.996Z,6.85
2023-05-03T03:55:51.272Z,6.84
2023-05-03T03:56:51.513Z,6.84
2023-05-03T03:57:51.731Z,6.88
2023-05-03T03:58:51.988Z,6.92
2023-05-03T03:59:52.239Z,6.95
2023-05-03T04:00:52.493Z,7.02
2023-05-03T04:01:52.856Z,7.05
2023-05-03T04:02:53.142Z,7.06
2023-05-03T04:03:53.484Z,7.05
2023-05-03T04:04:53.711Z,7.05
2023-05-03T04:05:53.985Z,7.09
2023-05-03T04:06:54.189Z,7.07
2023-05-03T04:07:54.518Z,7.12
2023-05-03T04:08:54.858Z,7.15
2023-05-03T04:09:55.235Z,7.16
2023-05-03T04:10:55.470Z,7.16
2023-05-03T04:11:55.723Z,7.20
2023-05-03T04:12:55.933Z,7.21
2023-05-03T04:13:56.303Z,7.23
2023-05-03T04:14:56.528Z,7.21
2023-05-03T04:15:56.753Z,7.21
2023-05-03T04:16:57.129Z,7.23
2023-05-03T04:17:57.361Z,7.23
2023-05-03T04:18:57.606Z,7.24
2023-05-03T04:19:57.883Z,7.25
2023-05-03T04:20:58.103Z,7.28
2023-05-03T04:21:58.333Z,7.30
2023-05-03T04:22:58.680Z,7.34
2023-05-03T04:23:59.008Z,7.32
2023-05-03T04:24:59.369Z,7.34
2023-05-03T04:25:59.608Z,7.34
2023-05-03T04:26:59.849Z,7.35
2023-05-03T04:28:00.134Z,7.34
2023-05-03T04:29:00.337Z,7.35
2023-05-03T04:30:00.654Z,7.35
2023-05-03T04:31:00.885Z,7.37
2023-05-03T04:32:01.200Z,7.40
2023-05-03T04:33:01.427Z,7.43
2023-05-03T04:34:01.724Z,7.48
2023-05-03T04:35:01.995Z,7.46
2023-05-03T04:36:02.234Z,7.48
2023-05-03T04:37:02.482Z,7.49
2023-05-03T04:38:02.701Z,7.50
2023-05-03T04:39:02.942Z,7.52
2023-05-03T04:40:03.448Z,7.57
2023-05-03T04:41:03.478Z,7.60
2023-05-03T04:42:03.691Z,7.64
2023-05-03T04:43:03.936Z,7.67
2023-05-03T04:44:04.259Z,7.68
2023-05-03T04:45:04.633Z,7.71
2023-05-03T04:46:04.881Z,7.74
2023-05-03T04:47:05.114Z,7.79
2023-05-03T04:48:05.745Z,7.79
2023-05-03T04:49:05.823Z,7.82
2023-05-03T04:50:06.342Z,7.85
2023-05-03T04:51:06.357Z,7.85
2023-05-03T04:52:06.589Z,7.87
2023-05-03T04:53:06.913Z,7.87
2023-05-03T04:54:07.169Z,7.90
2023-05-03T04:55:07.397Z,7.92
2023-05-03T04:56:07.621Z,7.97
2023-05-03T04:57:07.993Z,8.00
2023-05-03T04:58:08.271Z,8.02
2023-05-03T04:59:08.612Z,8.04
2023-05-03T05:00:08.910Z,8.05
2023-05-03T05:01:09.198Z,8.10
2023-05-03T05:02:09.490Z,8.18
2023-05-03T05:03:09.864Z,8.34
2023-05-03T05:04:10.199Z,8.66
2023-05-03T05:05:10.585Z,9.20
2023-05-03T05:06:10.678Z,9.81
2023-05-03T05:07:11.008Z,10.36
2023-05-03T05:08:11.207Z,10.89
2023-05-03T05:09:11.463Z,11.29
2023-05-03T05:10:11.700Z,11.72
2023-05-03T05:11:11.955Z,12.13
2023-05-03T05:12:12.218Z,12.47
2023-05-03T05:13:12.551Z,12.74
2023-05-03T05:14:12.908Z,12.92
2023-05-03T05:15:13.135Z,13.12
2023-05-03T05:16:13.376Z,13.25
2023-05-03T05:17:13.697Z,13.38
2023-05-03T05:18:13.977Z,13.52
2023-05-03T05:19:14.194Z,13.67
2023-05-03T05:20:15.304Z,13.81
2023-05-03T05:21:14.768Z,13.99
2023-05-03T05:22:15.025Z,14.15
2023-05-03T05:23:15.304Z,14.27
2023-05-03T05:24:15.543Z,14.32
2023-05-03T05:25:15.812Z,14.39
2023-05-03T05:26:16.096Z,14.43
2023-05-03T05:27:16.374Z,14.51
2023-05-03T05:28:16.684Z,14.46
2023-05-03T05:29:16.960Z,14.42
2023-05-03T05:30:17.308Z,14.40
2023-05-03T05:31:17.595Z,14.54
2023-05-03T05:32:17.837Z,14.70
2023-05-03T05:33:19.168Z,14.83
2023-05-03T05:34:18.433Z,14.89
2023-05-03T05:35:18.656Z,15.03
2023-05-03T05:36:18.909Z,15.10
2023-05-03T05:37:19.178Z,15.19
2023-05-03T05:38:19.436Z,15.20
2023-05-03T05:39:19.723Z,15.34
2023-05-03T05:40:19.963Z,15.47
2023-05-03T05:41:20.257Z,15.67
2023-05-03T05:42:20.516Z,15.83
2023-05-03T05:43:20.750Z,15.86
2023-05-03T05:44:21.018Z,15.97
2023-05-03T05:45:21.267Z,16.09
2023-05-03T05:46:21.688Z,16.28
2023-05-03T05:47:22.039Z,16.35
2023-05-03T05:48:22.122Z,16.48
2023-05-03T05:49:23.113Z,16.66
2023-05-03T05:50:22.732Z,16.91
2023-05-03T05:51:22.983Z,17.15
2023-05-03T05:52:23.226Z,17.28
2023-05-03T05:53:23.484Z,17.33
2023-05-03T05:54:23.736Z,17.30
2023-05-03T05:55:23.985Z,17.28
2023-05-03T05:56:24.212Z,17.33
2023-05-03T05:57:24.544Z,17.38
2023-05-03T05:58:24.742Z,17.46
2023-05-03T05:59:24.999Z,17.48
2023-05-03T06:00:25.235Z,17.59
2023-05-03T06:01:25.488Z,17.71
2023-05-03T06:02:26.182Z,17.77
2023-05-03T06:03:26.105Z,17.81
2023-05-03T06:04:26.279Z,17.84
2023-05-03T06:05:26.708Z,17.75
2023-05-03T06:06:26.798Z,17.87
2023-05-03T06:07:27.064Z,18.00
2023-05-03T06:08:27.298Z,18.03
2023-05-03T06:09:27.529Z,18.12
2023-05-03T06:10:27.848Z,18.35
2023-05-03T06:11:28.056Z,18.54
2023-05-03T06:12:28.385Z,18.72
2023-05-03T06:13:28.601Z,18.82
2023-05-03T06:14:28.857Z,18.81
2023-05-03T06:15:29.161Z,18.85
2023-05-03T06:16:29.548Z,18.80
2023-05-03T06:17:29.672Z,18.94
2023-05-03T06:18:29.927Z,19.08
2023-05-03T06:19:30.177Z,19.25
2023-05-03T06:20:30.496Z,19.37
2023-05-03T06:21:30.734Z,19.56
2023-05-03T06:22:30.960Z,19.76
2023-05-03T06:23:31.281Z,19.86
2023-05-03T06:24:31.528Z,19.99
2023-05-03T06:25:31.784Z,19.95
2023-05-03T06:26:32.028Z,19.81
2023-05-03T06:27:32.306Z,19.73
2023-05-03T06:28:32.595Z,19.65
2023-05-03T06:29:32.834Z,19.73
2023-05-03T06:30:33.066Z,19.69
2023-05-03T06:31:33.372Z,19.54
2023-05-03T06:32:33.659Z,19.13
2023-05-03T06:33:33.883Z,18.84
2023-05-03T06:34:34.133Z,18.66
2023-05-03T06:35:34.427Z,18.51
2023-05-03T06:36:34.656Z,18.33
2023-05-03T06:37:34.901Z,17.95
2023-05-03T06:38:35.144Z,17.55
2023-05-03T06:39:35.445Z,17.23
2023-05-03T06:40:37.757Z,16.93
2023-05-03T06:41:36.028Z,16.57
2023-05-03T06:42:36.272Z,16.21
2023-05-03T06:43:36.523Z,15.78
2023-05-03T06:44:36.764Z,15.43
2023-05-03T06:45:37.024Z,15.17
2023-05-03T06:46:37.256Z,14.92
2023-05-03T06:47:37.695Z,14.62
2023-05-03T06:48:37.968Z,14.32
2023-05-03T06:49:38.168Z,14.03
2023-05-03T06:50:38.417Z,13.75
2023-05-03T06:51:38.720Z,13.51
2023-05-03T06:52:38.926Z,13.33
2023-05-03T06:53:39.204Z,13.22
2023-05-03T06:54:39.435Z,13.08
2023-05-03T06:55:39.641Z,12.95
2023-05-03T06:56:40.022Z,12.83
2023-05-03T06:57:40.228Z,12.70
2023-05-03T06:58:40.657Z,12.60
2023-05-03T06:59:40.845Z,12.52
2023-05-03T07:00:41.076Z,12.47
2023-05-03T07:01:41.533Z,12.41
2023-05-03T07:02:41.691Z,12.35
2023-05-03T07:03:42.205Z,12.34
2023-05-03T07:04:42.285Z,12.34
2023-05-03T07:05:42.529Z,12.35
2023-05-03T07:06:55.210Z,12.35
2023-05-03T07:07:44.129Z,12.34
2023-05-03T07:08:43.459Z,12.27
2023-05-03T07:09:44.167Z,12.21
2023-05-03T07:10:43.898Z,12.16
2023-05-03T07:11:44.240Z,12.12
2023-05-03T07:12:44.627Z,12.10
2023-05-03T07:13:44.870Z,12.12
2023-05-03T07:14:45.136Z,12.10
2023-05-03T07:15:45.375Z,12.09
2023-05-03T07:16:45.654Z,12.07
2023-05-03T07:17:45.846Z,12.09
2023-05-03T07:18:46.204Z,12.09
2023-05-03T07:19:46.432Z,12.10
2023-05-03T07:20:46.782Z,12.16
2023-05-03T07:21:47.012Z,12.17
2023-05-03T07:22:47.242Z,12.17
2023-05-03T07:23:47.512Z,12.14
2023-05-03T07:24:47.738Z,12.13
2023-05-03T07:25:48.077Z,12.12
2023-05-03T07:26:49.172Z,12.12
2023-05-03T07:27:48.515Z,12.13
2023-05-03T07:28:48.803Z,12.04
2023-05-03T07:29:49.044Z,11.86
2023-05-03T07:30:50.233Z,11.78
2023-05-03T07:31:51.379Z,11.75
2023-05-03T07:32:49.921Z,11.76
2023-05-03T07:33:50.193Z,11.76
2023-05-03T07:34:50.316Z,11.80
2023-05-03T07:35:50.548Z,11.85
2023-05-03T07:36:50.792Z,11.91
2023-05-03T07:37:51.017Z,11.98
2023-05-03T07:38:51.267Z,12.04
2023-05-03T07:39:51.486Z,12.10
2023-05-03T07:40:51.730Z,12.13
2023-05-03T07:41:52.948Z,12.16
2023-05-03T07:42:52.237Z,12.19
2023-05-03T07:43:52.430Z,12.17
2023-05-03T07:44:52.694Z,12.17
2023-05-03T07:45:52.985Z,12.21
2023-05-03T07:46:53.961Z,12.24
2023-05-03T07:47:53.553Z,12.29
2023-05-03T07:48:53.740Z,12.32
2023-05-03T07:49:54.067Z,12.38
2023-05-03T07:50:54.338Z,12.41
2023-05-03T07:51:54.580Z,12.45
2023-05-03T07:52:54.939Z,12.47
2023-05-03T07:53:55.172Z,12.46
2023-05-03T07:54:55.398Z,12.42
2023-05-03T07:55:55.651Z,12.46
2023-05-03T07:56:55.860Z,12.52
2023-05-03T07:57:56.227Z,12.56
2023-05-03T07:59:07.475Z,12.62
2023-05-03T07:59:57.752Z,12.65
2023-05-03T08:00:57.067Z,12.72
2023-05-03T08:01:58.299Z,12.72
2023-05-03T08:02:57.649Z,12.72
2023-05-03T08:03:58.105Z,12.74
2023-05-03T08:04:58.238Z,12.79
2023-05-03T08:05:58.411Z,12.86
2023-05-03T08:06:58.629Z,12.92
2023-05-03T08:07:58.922Z,12.97
2023-05-03T08:08:59.158Z,13.03
2023-05-03T08:09:59.378Z,13.07
2023-05-03T08:10:59.714Z,13.11
2023-05-03T08:12:00.091Z,13.15
2023-05-03T08:13:00.321Z,13.22
2023-05-03T08:14:00.577Z,13.25
2023-05-03T08:15:00.782Z,13.29
2023-05-03T08:16:01.076Z,13.30
2023-05-03T08:17:01.260Z,13.30
2023-05-03T08:18:01.619Z,13.25
2023-05-03T08:19:01.807Z,13.10
2023-05-03T08:20:02.553Z,13.05
2023-05-03T08:21:02.300Z,13.05
2023-05-03T08:22:02.580Z,13.07
2023-05-03T08:23:02.804Z,13.10
2023-05-03T08:24:03.159Z,13.10
2023-05-03T08:25:03.515Z,13.10
2023-05-03T08:26:03.746Z,13.07
2023-05-03T08:27:03.967Z,13.05
2023-05-03T08:28:04.200Z,13.07
2023-05-03T08:29:04.549Z,13.05
2023-05-03T08:30:04.933Z,13.00
2023-05-03T08:31:05.164Z,12.95
2023-05-03T08:32:05.255Z,12.86
2023-05-03T08:33:05.514Z,12.86
2023-05-03T08:34:05.729Z,12.85
2023-05-03T08:35:06.118Z,12.85
2023-05-03T08:36:06.295Z,12.83
2023-05-03T08:37:06.646Z,12.77
2023-05-03T08:38:06.850Z,12.75
2023-05-03T08:39:07.127Z,12.74
2023-05-03T08:40:07.358Z,12.74
2023-05-03T08:41:07.973Z,12.74
2023-05-03T08:42:07.876Z,12.82
2023-05-03T08:43:08.243Z,12.85
2023-05-03T08:44:08.452Z,12.85
2023-05-03T08:45:08.808Z,12.85
2023-05-03T08:46:09.090Z,12.87
2023-05-03T08:47:09.590Z,12.89
2023-05-03T08:48:09.576Z,12.93
2023-05-03T08:49:10.017Z,13.00
2023-05-03T08:50:10.167Z,13.04
2023-05-03T08:51:10.541Z,13.01
2023-05-03T08:52:10.687Z,12.89
2023-05-03T08:53:10.895Z,12.82
2023-05-03T08:54:11.277Z,12.74
2023-05-03T08:55:11.541Z,12.72
2023-05-03T08:56:11.799Z,12.72
2023-05-03T08:57:12.006Z,12.72
2023-05-03T08:58:12.248Z,12.75
2023-05-03T08:59:12.473Z,12.79
2023-05-03T09:00:13.201Z,12.87
2023-05-03T09:01:13.001Z,12.92
2023-05-03T09:02:13.249Z,13.00
2023-05-03T09:03:13.635Z,13.01
2023-05-03T09:04:13.774Z,13.07
2023-05-03T09:05:14.002Z,13.08
2023-05-03T09:06:14.273Z,13.10
2023-05-03T09:07:14.473Z,13.07
2023-05-03T09:08:14.711Z,13.07
2023-05-03T09:09:14.936Z,13.08
2023-05-03T09:10:15.173Z,13.11
2023-05-03T09:11:15.524Z,13.14
2023-05-03T09:12:15.778Z,13.17
2023-05-03T09:13:16.083Z,13.23
2023-05-03T09:14:16.321Z,13.25
2023-05-03T09:15:16.533Z,13.29
2023-05-03T09:16:16.783Z,13.38
2023-05-03T09:17:17.021Z,13.42
2023-05-03T09:18:17.882Z,13.46
2023-05-03T09:19:17.577Z,13.52
2023-05-03T09:20:17.804Z,13.55
2023-05-03T09:21:18.036Z,13.62
2023-05-03T09:22:18.276Z,13.66
2023-05-03T09:23:18.540Z,13.69
2023-05-03T09:24:18.793Z,13.69
2023-05-03T09:25:19.033Z,13.71
2023-05-03T09:26:19.988Z,13.73
2023-05-03T09:27:19.542Z,13.75
2023-05-03T09:28:20.580Z,13.77
2023-05-03T09:29:20.816Z,13.79
2023-05-03T09:30:20.431Z,13.82
2023-05-03T09:31:20.756Z,13.85
2023-05-03T09:32:20.978Z,13.91
2023-05-03T09:33:21.335Z,13.96
2023-05-03T09:34:21.564Z,14.02
2023-05-03T09:35:21.842Z,14.04
2023-05-03T09:36:22.109Z,14.07
2023-05-03T09:37:22.337Z,14.04
2023-05-03T09:38:22.543Z,14.04
2023-05-03T09:39:22.918Z,14.04
2023-05-03T09:40:23.146Z,14.04
2023-05-03T09:42:45.794Z,14.04
2023-05-03T09:43:46.027Z,14.04
2023-05-03T09:44:46.277Z,14.02
2023-05-03T09:45:46.591Z,14.02
2023-05-03T09:46:46.806Z,13.99
2023-05-03T09:47:47.135Z,13.95
2023-05-03T09:48:47.348Z,13.89
2023-05-03T09:49:47.605Z,13.85
2023-05-03T09:50:47.817Z,13.79
2023-05-03T09:51:48.066Z,13.79
2023-05-03T09:52:48.329Z,13.81
2023-05-03T09:53:48.645Z,13.84
2023-05-03T09:54:48.856Z,13.85
2023-05-03T09:55:49.068Z,13.91
2023-05-03T09:56:49.320Z,13.92
2023-05-03T09:57:49.613Z,13.95
2023-05-03T09:58:49.842Z,14.00
2023-05-03T09:59:50.145Z,14.06
2023-05-03T10:00:52.246Z,14.03
2023-05-03T10:01:50.770Z,13.96
2023-05-03T10:02:51.009Z,13.92
2023-05-03T10:03:51.284Z,13.88
2023-05-03T10:04:51.562Z,13.87
2023-05-03T10:05:51.803Z,13.84
2023-05-03T10:06:52.115Z,13.78
2023-05-03T10:07:52.541Z,13.73
2023-05-03T10:08:52.654Z,13.71
2023-05-03T10:09:52.906Z,13.71
2023-05-03T10:10:53.130Z,13.71
2023-05-03T10:11:53.529Z,13.69
2023-05-03T10:12:53.774Z,13.67
2023-05-03T10:13:54.042Z,13.70
2023-05-03T10:14:54.305Z,13.71
2023-05-03T10:15:54.556Z,13.77
2023-05-03T10:16:54.806Z,13.79
2023-05-03T10:17:55.164Z,13.81
2023-05-03T10:18:55.273Z,13.79
2023-05-03T10:19:55.577Z,13.79
2023-05-03T10:20:55.786Z,13.70
2023-05-03T10:21:56.034Z,13.60
2023-05-03T10:22:56.330Z,13.55
2023-05-03T10:23:56.644Z,13.59
2023-05-03T10:24:56.816Z,13.60
2023-05-03T10:25:57.063Z,13.63
2023-05-03T10:26:57.322Z,13.66
2023-05-03T10:27:57.578Z,13.63
2023-05-03T10:29:00.101Z,13.63
2023-05-03T10:29:58.111Z,13.63
2023-05-03T10:30:59.127Z,13.67
2023-05-03T10:31:58.695Z,13.70
2023-05-03T10:32:59.063Z,13.77
2023-05-03T10:33:59.208Z,13.82
2023-05-03T10:34:59.471Z,13.88
2023-05-03T10:35:59.728Z,13.87
2023-05-03T10:37:00.025Z,13.77
2023-05-03T10:38:00.277Z,13.70
2023-05-03T10:39:00.495Z,13.66
2023-05-03T10:40:00.759Z,13.63
2023-05-03T10:41:01.009Z,13.62
2023-05-03T10:42:01.352Z,13.62
2023-05-03T10:43:01.482Z,13.64
2023-05-03T10:44:01.707Z,13.67
2023-05-03T10:45:02.298Z,13.70
2023-05-03T10:46:02.309Z,13.67
2023-05-03T10:47:02.555Z,13.71
2023-05-03T10:48:02.803Z,13.73
2023-05-03T10:49:03.001Z,13.75
2023-05-03T10:50:03.325Z,13.75
2023-05-03T10:51:03.601Z,13.79
2023-05-03T10:52:03.850Z,13.82
2023-05-03T10:53:04.089Z,13.88
2023-05-03T10:54:04.375Z,13.96
2023-05-03T10:55:04.905Z,14.00
2023-05-03T10:56:04.799Z,14.04
2023-05-03T10:57:05.018Z,14.09
2023-05-03T10:58:05.269Z,14.15
2023-05-03T10:59:05.532Z,14.18
2023-05-03T11:00:05.777Z,14.20
2023-05-03T11:01:06.060Z,14.24
2023-05-03T11:02:06.498Z,14.28
2023-05-03T11:03:06.541Z,14.32
2023-05-03T11:04:06.788Z,14.36
2023-05-03T11:05:07.536Z,14.37
2023-05-03T11:06:07.334Z,14.39
2023-05-03T11:07:07.516Z,14.37
2023-05-03T11:08:07.801Z,14.39
2023-05-03T11:09:08.053Z,14.40
2023-05-03T11:10:08.299Z,14.40
2023-05-03T11:11:08.521Z,14.43
2023-05-03T11:12:08.913Z,14.39
2023-05-03T11:13:09.041Z,14.29
2023-05-03T11:14:09.284Z,14.28
2023-05-03T11:15:09.505Z,14.28
2023-05-03T11:16:09.835Z,14.29
2023-05-03T11:17:10.049Z,14.35
2023-05-03T11:18:10.363Z,14.37
2023-05-03T11:19:10.577Z,14.37
2023-05-03T11:20:10.822Z,14.35
2023-05-03T11:21:11.036Z,14.33
2023-05-03T11:22:11.271Z,14.40
2023-05-03T11:23:11.594Z,14.46
2023-05-03T11:24:11.838Z,14.50
2023-05-03T11:25:12.072Z,14.54
2023-05-03T11:26:12.338Z,14.62
2023-05-03T11:27:12.613Z,14.69
2023-05-03T11:28:12.845Z,14.69
2023-05-03T11:29:13.102Z,14.69
2023-05-03T11:30:13.356Z,14.73
2023-05-03T11:31:13.669Z,14.75
2023-05-03T11:32:14.077Z,14.78
2023-05-03T11:33:14.262Z,14.80
2023-05-03T11:34:14.503Z,14.73
2023-05-03T11:35:14.755Z,14.70
2023-05-03T11:36:14.978Z,14.64
2023-05-03T11:37:15.440Z,14.58
2023-05-03T11:38:15.717Z,14.57
2023-05-03T11:39:16.473Z,14.52
2023-05-03T11:40:16.320Z,14.50
2023-05-03T11:41:16.892Z,14.42
2023-05-03T11:42:17.024Z,14.40
2023-05-03T11:43:17.286Z,14.39
2023-05-03T11:44:18.431Z,14.35
2023-05-03T11:45:17.800Z,14.33
2023-05-03T11:46:18.294Z,14.29
2023-05-03T11:47:18.534Z,14.25
2023-05-03T11:48:18.710Z,14.22
2023-05-03T11:49:19.471Z,14.24
2023-05-03T11:50:19.221Z,14.25
2023-05-03T11:51:19.439Z,14.27
2023-05-03T11:52:19.687Z,14.28
2023-05-03T11:53:20.023Z,14.29
2023-05-03T11:54:25.962Z,14.35
2023-05-03T11:55:21.461Z,14.40
2023-05-03T11:56:21.941Z,14.45
2023-05-03T11:57:21.113Z,14.47
2023-05-03T11:58:21.442Z,14.51
2023-05-03T11:59:21.668Z,14.52
2023-05-03T12:00:22.049Z,14.51
2023-05-03T12:01:22.420Z,14.54
2023-05-03T12:02:22.603Z,14.57
2023-05-03T12:03:25.422Z,14.60
2023-05-03T12:04:24.305Z,14.65
2023-05-03T12:05:23.856Z,14.69
2023-05-03T12:06:24.167Z,14.77
2023-05-03T12:07:26.208Z,14.84
2023-05-03T12:08:25.633Z,14.89
2023-05-03T12:09:26.459Z,14.92
2023-05-03T12:10:26.870Z,14.96
2023-05-03T12:11:26.996Z,15.02
2023-05-03T12:12:30.134Z,15.10
2023-05-03T12:13:29.190Z,15.07
2023-05-03T12:14:26.300Z,15.09
2023-05-03T12:15:26.963Z,15.07
2023-05-03T12:16:26.884Z,14.99
2023-05-03T12:17:28.109Z,14.88
2023-05-03T12:18:27.445Z,14.80
2023-05-03T12:19:28.307Z,14.64
2023-05-03T12:21:17.954Z,14.54
2023-05-03T12:21:31.936Z,14.46
2023-05-03T12:23:29.034Z,14.42
2023-05-03T12:24:29.192Z,14.40
2023-05-03T12:25:33.633Z,14.40
2023-05-03T12:26:31.898Z,14.46
2023-05-03T12:27:32.494Z,14.51
2023-05-03T12:28:30.280Z,14.58
2023-05-03T12:29:33.001Z,14.65
2023-05-03T12:30:33.025Z,14.73
2023-05-03T12:31:34.338Z,14.75
2023-05-03T12:32:31.431Z,14.78
2023-05-03T12:33:33.463Z,14.78
2023-05-03T12:34:35.425Z,14.75
2023-05-03T12:35:34.109Z,14.75
2023-05-03T12:36:32.477Z,14.80
2023-05-03T12:37:33.521Z,14.81
2023-05-03T12:38:35.833Z,14.80
2023-05-03T12:39:33.716Z,14.83
2023-05-03T12:40:35.032Z,14.83
2023-05-03T12:42:05.615Z,14.83
2023-05-03T12:42:35.116Z,14.81
2023-05-03T12:43:34.441Z,14.80
2023-05-03T12:44:35.466Z,14.80
2023-05-03T12:45:35.112Z,14.80
2023-05-03T12:46:35.605Z,14.78
2023-05-03T12:47:36.490Z,14.81
2023-05-03T12:48:35.938Z,14.83
2023-05-03T12:49:38.630Z,14.86
2023-05-03T12:50:38.756Z,14.91
2023-05-03T12:51:38.358Z,14.96
2023-05-03T12:52:38.933Z,14.99
2023-05-03T12:53:38.954Z,15.01
2023-05-03T12:54:41.506Z,15.07
2023-05-03T12:55:42.450Z,15.09
2023-05-03T12:56:40.918Z,15.06
2023-05-03T12:57:38.697Z,15.01
2023-05-03T12:58:56.772Z,15.01
2023-05-03T12:59:42.324Z,14.99
2023-05-03T13:00:46.608Z,14.99
2023-05-03T13:03:20.693Z,15.06
2023-05-03T13:03:44.103Z,15.11
2023-05-03T13:05:41.101Z,15.27
2023-05-03T13:06:43.065Z,15.34
2023-05-03T13:07:43.250Z,15.41
2023-05-03T13:08:49.348Z,15.50
2023-05-03T13:10:43.525Z,15.67
2023-05-03T13:11:42.839Z,15.68